createdAt,value
2016-03-31T00:00:59.820Z,1005.85
2016-03-31T00:01:59.837Z,1005.85
2016-03-31T00:02:59.840Z,1005.87
2016-03-31T00:03:59.843Z,1005.89
2016-03-31T00:04:59.846Z,1005.91
2016-03-31T00:05:59.848Z,1005.9
2016-03-31T00:06:59.866Z,1005.96
2016-03-31T00:07:59.869Z,1005.94
2016-03-31T00:08:59.872Z,1005.9
2016-03-31T00:09:59.875Z,1005.88
2016-03-31T00:10:59.877Z,1005.85
2016-03-31T00:11:59.895Z,1005.85
2016-03-31T00:12:59.898Z,1005.83
2016-03-31T00:13:59.901Z,1005.81
2016-03-31T00:14:59.904Z,1005.79
2016-03-31T00:16:01.469Z,1005.83
2016-03-31T00:16:59.924Z,1005.85
2016-03-31T00:17:59.927Z,1005.81
2016-03-31T00:18:59.928Z,1005.85
2016-03-31T00:19:59.941Z,1005.83
2016-03-31T00:20:59.944Z,1005.84
2016-03-31T00:21:59.946Z,1005.82
2016-03-31T00:22:59.948Z,1005.78
2016-03-31T00:23:59.967Z,1005.76
2016-03-31T00:24:59.969Z,1005.8
2016-03-31T00:25:59.972Z,1005.78
2016-03-31T00:26:59.975Z,1005.8
2016-03-31T00:27:59.977Z,1005.87
2016-03-31T00:28:59.996Z,1005.89
2016-03-31T00:29:59.999Z,1005.88
2016-03-31T00:31:00.006Z,1005.91
2016-03-31T00:32:00.010Z,1005.92
2016-03-31T00:33:00.015Z,1005.92
2016-03-31T00:34:00.017Z,1005.92
2016-03-31T00:35:00.020Z,1005.97
2016-03-31T00:36:00.039Z,1005.96
2016-03-31T00:37:00.026Z,1005.98
2016-03-31T00:38:00.044Z,1005.96
2016-03-31T00:39:00.046Z,1005.95
2016-03-31T00:40:00.050Z,1005.98
2016-03-31T00:41:00.052Z,1006
2016-03-31T00:42:00.055Z,1005.98
2016-03-31T00:43:00.073Z,1006.04
2016-03-31T00:44:00.075Z,1005.96
2016-03-31T00:45:00.078Z,1005.93
2016-03-31T00:47:00.099Z,1005.93
2016-03-31T00:48:00.102Z,1005.9
2016-03-31T00:49:00.105Z,1005.95
2016-03-31T00:50:00.107Z,1005.96
2016-03-31T00:51:00.111Z,1005.99
2016-03-31T00:52:00.128Z,1005.97
2016-03-31T00:53:00.131Z,1006.01
2016-03-31T00:54:00.133Z,1006.01
2016-03-31T00:55:00.136Z,1006
2016-03-31T00:56:00.138Z,1005.99
2016-03-31T00:57:00.157Z,1005.97
2016-03-31T00:58:00.160Z,1005.94
2016-03-31T00:59:00.163Z,1005.96
2016-03-31T01:00:00.165Z,1005.98
2016-03-31T01:01:00.168Z,1005.99
2016-03-31T01:02:00.187Z,1006
2016-03-31T01:03:00.204Z,1005.98
2016-03-31T01:04:00.192Z,1006.01
2016-03-31T01:05:00.195Z,1005.99
2016-03-31T01:06:00.197Z,1006
2016-03-31T01:07:00.231Z,1006.04
2016-03-31T01:08:00.218Z,1006.06
2016-03-31T01:09:00.220Z,1006.08
2016-03-31T01:10:00.224Z,1006.08
2016-03-31T01:11:00.226Z,1006.07
2016-03-31T01:12:00.229Z,1006.1
2016-03-31T01:13:00.247Z,1006.08
2016-03-31T01:14:00.250Z,1006.12
2016-03-31T01:15:00.253Z,1006.13
2016-03-31T01:16:00.255Z,1006.16
2016-03-31T01:17:00.274Z,1006.13
2016-03-31T01:18:00.277Z,1006.11
2016-03-31T01:19:00.279Z,1006.15
2016-03-31T01:20:00.282Z,1006.13
2016-03-31T01:21:00.299Z,1006.14
2016-03-31T01:22:00.302Z,1006.14
2016-03-31T01:23:00.305Z,1006.16
2016-03-31T01:24:00.308Z,1006.13
2016-03-31T01:25:00.326Z,1006.17
2016-03-31T01:26:00.329Z,1006.19
2016-03-31T01:27:00.331Z,1006.14
2016-03-31T01:28:00.334Z,1006.1
2016-03-31T01:29:00.337Z,1006.07
2016-03-31T01:30:00.339Z,1005.99
2016-03-31T01:31:00.342Z,1005.98
2016-03-31T01:32:00.360Z,1005.99
2016-03-31T01:33:00.363Z,1005.93
2016-03-31T01:34:00.365Z,1005.95
2016-03-31T01:35:00.368Z,1005.94
2016-03-31T01:36:00.387Z,1005.96
2016-03-31T01:37:00.389Z,1005.96
2016-03-31T01:38:00.392Z,1005.96
2016-03-31T01:39:00.396Z,1005.96
2016-03-31T01:40:00.414Z,1005.97
2016-03-31T01:41:00.400Z,1005.95
2016-03-31T01:42:00.420Z,1005.94
2016-03-31T01:43:00.422Z,1005.91
2016-03-31T01:44:00.425Z,1005.93
2016-03-31T01:45:00.427Z,1005.96
2016-03-31T01:46:00.445Z,1005.94
2016-03-31T01:47:00.448Z,1005.93
2016-03-31T01:48:00.450Z,1005.92
2016-03-31T01:49:00.453Z,1005.92
2016-03-31T01:50:00.456Z,1005.93
2016-03-31T01:51:00.458Z,1005.92
2016-03-31T01:52:00.477Z,1005.94
2016-03-31T01:53:00.480Z,1005.95
2016-03-31T01:54:00.498Z,1005.95
2016-03-31T01:55:00.485Z,1006.01
2016-03-31T01:56:00.504Z,1005.96
2016-03-31T01:57:00.506Z,1005.94
2016-03-31T01:58:00.509Z,1005.91
2016-03-31T01:59:00.512Z,1005.87
2016-03-31T02:00:00.530Z,1005.8
2016-03-31T02:01:00.532Z,1005.78
2016-03-31T02:02:00.535Z,1005.73
2016-03-31T02:03:00.538Z,1005.72
2016-03-31T02:04:00.540Z,1005.73
2016-03-31T02:05:00.543Z,1005.8
2016-03-31T02:06:00.546Z,1005.8
2016-03-31T02:07:00.564Z,1005.85
2016-03-31T02:08:00.576Z,1005.83
2016-03-31T02:09:00.594Z,1005.84
2016-03-31T02:10:00.581Z,1005.86
2016-03-31T02:11:00.585Z,1005.84
2016-03-31T02:12:00.587Z,1005.82
2016-03-31T02:13:00.605Z,1005.88
2016-03-31T02:14:00.607Z,1005.85
2016-03-31T02:15:00.610Z,1005.81
2016-03-31T02:16:00.612Z,1005.82
2016-03-31T02:17:00.615Z,1005.75
2016-03-31T02:18:00.621Z,1005.76
2016-03-31T02:19:00.624Z,1005.74
2016-03-31T02:20:00.643Z,1005.73
2016-03-31T02:21:00.645Z,1005.74
2016-03-31T02:22:00.648Z,1005.78
2016-03-31T02:23:00.650Z,1005.8
2016-03-31T02:24:00.668Z,1005.79
2016-03-31T02:25:00.670Z,1005.87
2016-03-31T02:26:00.673Z,1005.84
2016-03-31T02:27:00.676Z,1005.84
2016-03-31T02:28:00.694Z,1005.86
2016-03-31T02:29:00.681Z,1005.85
2016-03-31T02:30:00.700Z,1005.87
2016-03-31T02:31:00.702Z,1005.89
2016-03-31T02:32:00.705Z,1005.88
2016-03-31T02:33:00.708Z,1005.84
2016-03-31T02:34:00.727Z,1005.78
2016-03-31T02:35:00.729Z,1005.8
2016-03-31T02:36:00.732Z,1005.78
2016-03-31T02:37:00.735Z,1005.82
2016-03-31T02:38:00.737Z,1005.78
2016-03-31T02:39:00.755Z,1005.76
2016-03-31T02:40:00.758Z,1005.76
2016-03-31T02:41:00.760Z,1005.71
2016-03-31T02:42:00.764Z,1005.69
2016-03-31T02:43:00.766Z,1005.69
2016-03-31T02:44:00.769Z,1005.75
2016-03-31T02:45:00.787Z,1005.74
2016-03-31T02:47:00.793Z,1005.8
2016-03-31T02:48:00.795Z,1005.88
2016-03-31T02:49:00.798Z,1005.91
2016-03-31T02:50:00.817Z,1005.94
2016-03-31T02:51:00.819Z,1005.97
2016-03-31T02:52:00.823Z,1005.98
2016-03-31T02:53:00.825Z,1005.99
2016-03-31T02:54:00.828Z,1005.98
2016-03-31T02:55:00.845Z,1006.01
2016-03-31T02:56:00.848Z,1006.04
2016-03-31T02:57:00.851Z,1006
2016-03-31T02:58:00.853Z,1006.03
2016-03-31T02:59:00.872Z,1006.01
2016-03-31T03:00:00.875Z,1006.07
2016-03-31T03:01:00.877Z,1006.1
2016-03-31T03:02:00.881Z,1006.1
2016-03-31T03:03:00.883Z,1006.11
2016-03-31T03:04:00.901Z,1006.09
2016-03-31T03:05:00.903Z,1006.12
2016-03-31T03:06:00.906Z,1006.09
2016-03-31T03:07:00.909Z,1006.1
2016-03-31T03:08:00.902Z,1006.12
2016-03-31T03:09:00.894Z,1006.15
2016-03-31T03:10:00.927Z,1006.11
2016-03-31T03:11:00.900Z,1006.1
2016-03-31T03:12:00.917Z,1006.05
2016-03-31T03:13:00.920Z,1006.03
2016-03-31T03:14:00.939Z,1006.01
2016-03-31T03:15:00.925Z,1006.01
2016-03-31T03:16:00.944Z,1006.02
2016-03-31T03:17:00.963Z,1006
2016-03-31T03:18:00.950Z,1005.99
2016-03-31T03:19:00.952Z,1006
2016-03-31T03:20:00.954Z,1006.02
2016-03-31T03:21:00.974Z,1006.05
2016-03-31T03:22:00.976Z,1006.04
2016-03-31T03:23:00.979Z,1006.02
2016-03-31T03:24:00.982Z,1006.04
2016-03-31T03:25:00.984Z,1005.99
2016-03-31T03:26:01.002Z,1005.94
2016-03-31T03:27:01.004Z,1005.95
2016-03-31T03:28:01.024Z,1005.92
2016-03-31T03:29:01.010Z,1005.94
2016-03-31T03:30:01.012Z,1005.96
2016-03-31T03:31:01.032Z,1005.98
2016-03-31T03:32:01.034Z,1005.99
2016-03-31T03:33:01.037Z,1006.04
2016-03-31T03:34:01.040Z,1006.07
2016-03-31T03:35:01.042Z,1006.05
2016-03-31T03:36:01.060Z,1006.06
2016-03-31T03:37:01.063Z,1006.06
2016-03-31T03:38:01.066Z,1006.04
2016-03-31T03:39:01.068Z,1006.02
2016-03-31T03:40:01.071Z,1006.04
2016-03-31T03:41:01.074Z,1006.05
2016-03-31T03:42:01.092Z,1006.02
2016-03-31T03:43:01.094Z,1006.04
2016-03-31T03:44:01.098Z,1006.02
2016-03-31T03:45:01.100Z,1006.01
2016-03-31T03:46:01.118Z,1006.02
2016-03-31T03:47:01.122Z,1006.03
2016-03-31T03:48:01.124Z,1006
2016-03-31T03:49:01.127Z,1005.99
2016-03-31T03:50:01.129Z,1006
2016-03-31T03:51:01.132Z,1005.99
2016-03-31T03:52:01.150Z,1005.98
2016-03-31T03:53:01.153Z,1005.98
2016-03-31T03:54:01.156Z,1005.99
2016-03-31T03:55:01.158Z,1006.03
2016-03-31T03:56:01.176Z,1006.03
2016-03-31T03:57:01.180Z,1006.02
2016-03-31T03:58:01.182Z,1006.04
2016-03-31T03:59:01.185Z,1006.07
2016-03-31T04:00:01.187Z,1006.11
2016-03-31T04:01:01.190Z,1006.11
2016-03-31T04:02:01.208Z,1006.07
2016-03-31T04:03:01.211Z,1006.08
2016-03-31T04:04:01.214Z,1006.05
2016-03-31T04:05:01.217Z,1006.07
2016-03-31T04:06:01.219Z,1006.06
2016-03-31T04:07:01.237Z,1006.07
2016-03-31T04:08:01.240Z,1006.05
2016-03-31T04:09:01.242Z,1006.08
2016-03-31T04:10:01.245Z,1006.08
2016-03-31T04:11:01.248Z,1006.05
2016-03-31T04:12:01.276Z,1006.04
2016-03-31T04:13:01.931Z,1006.05
2016-03-31T04:14:01.243Z,1006.02
2016-03-31T04:15:01.288Z,1006.01
2016-03-31T04:16:01.274Z,1005.97
2016-03-31T04:17:01.261Z,1006
2016-03-31T04:18:01.263Z,1005.98
2016-03-31T04:19:01.267Z,1006.01
2016-03-31T04:20:01.269Z,1005.95
2016-03-31T04:21:01.287Z,1005.95
2016-03-31T04:22:01.290Z,1005.92
2016-03-31T04:23:01.293Z,1005.89
2016-03-31T04:24:01.296Z,1005.89
2016-03-31T04:25:01.330Z,1005.9
2016-03-31T04:26:01.386Z,1005.84
2016-03-31T04:27:01.440Z,1005.87
2016-03-31T04:28:01.496Z,1005.84
2016-03-31T04:29:01.551Z,1005.85
2016-03-31T04:30:01.595Z,1005.81
2016-03-31T04:31:01.631Z,1005.78
2016-03-31T04:32:01.653Z,1005.76
2016-03-31T04:33:01.674Z,1005.76
2016-03-31T04:34:01.696Z,1005.79
2016-03-31T04:35:01.714Z,1005.76
2016-03-31T04:36:01.739Z,1005.74
2016-03-31T04:37:01.748Z,1005.75
2016-03-31T04:38:01.757Z,1005.73
2016-03-31T04:39:01.766Z,1005.77
2016-03-31T04:40:01.790Z,1005.79
2016-03-31T04:41:01.779Z,1005.92
2016-03-31T04:42:01.801Z,1006.01
2016-03-31T04:43:01.805Z,1006.06
2016-03-31T04:44:01.810Z,1006.05
2016-03-31T04:45:01.815Z,1006.05
2016-03-31T04:46:03.678Z,1006
2016-03-31T04:47:01.837Z,1005.97
2016-03-31T04:48:01.842Z,1005.96
2016-03-31T04:49:01.845Z,1005.89
2016-03-31T04:50:01.849Z,1005.86
2016-03-31T04:51:01.852Z,1005.87
2016-03-31T04:52:01.871Z,1005.86
2016-03-31T04:53:01.874Z,1005.82
2016-03-31T04:54:01.877Z,1005.78
2016-03-31T04:55:01.880Z,1005.76
2016-03-31T04:56:01.883Z,1005.73
2016-03-31T04:57:01.901Z,1005.71
2016-03-31T04:58:01.904Z,1005.69
2016-03-31T04:59:01.906Z,1005.69
2016-03-31T05:00:01.909Z,1005.69
2016-03-31T05:01:01.928Z,1005.67
2016-03-31T05:02:01.930Z,1005.62
2016-03-31T05:03:01.934Z,1005.64
2016-03-31T05:04:01.936Z,1005.65
2016-03-31T05:05:01.939Z,1005.66
2016-03-31T05:06:01.942Z,1005.67
2016-03-31T05:07:01.961Z,1005.64
2016-03-31T05:08:01.963Z,1005.63
2016-03-31T05:09:01.966Z,1005.67
2016-03-31T05:10:01.968Z,1005.66
2016-03-31T05:11:01.971Z,1005.62
2016-03-31T05:12:01.974Z,1005.62
2016-03-31T05:13:01.991Z,1005.62
2016-03-31T05:14:01.994Z,1005.61
2016-03-31T05:15:01.997Z,1005.62
2016-03-31T05:16:02.046Z,1005.64
2016-03-31T05:17:02.003Z,1005.66
2016-03-31T05:18:02.021Z,1005.65
2016-03-31T05:19:02.023Z,1005.66
2016-03-31T05:20:02.027Z,1005.7
2016-03-31T05:21:02.029Z,1005.69
2016-03-31T05:22:02.032Z,1005.72
2016-03-31T05:23:02.050Z,1005.74
2016-03-31T05:24:02.053Z,1005.74
2016-03-31T05:25:02.056Z,1005.78
2016-03-31T05:26:02.059Z,1005.8
2016-03-31T05:27:02.077Z,1005.81
2016-03-31T05:28:02.064Z,1005.8
2016-03-31T05:29:02.081Z,1005.81
2016-03-31T05:30:02.085Z,1005.79
2016-03-31T05:31:02.087Z,1005.74
2016-03-31T05:32:02.105Z,1005.73
2016-03-31T05:33:02.108Z,1005.75
2016-03-31T05:34:02.111Z,1005.76
2016-03-31T05:35:02.113Z,1005.75
2016-03-31T05:36:02.116Z,1005.76
2016-03-31T05:37:02.119Z,1005.72
2016-03-31T05:38:02.136Z,1005.73
2016-03-31T05:39:02.140Z,1005.77
2016-03-31T05:40:02.158Z,1005.81
2016-03-31T05:41:02.145Z,1005.83
2016-03-31T05:42:02.147Z,1005.83
2016-03-31T05:43:02.150Z,1005.86
2016-03-31T05:44:02.168Z,1005.87
2016-03-31T05:45:02.172Z,1005.91
2016-03-31T05:46:02.174Z,1005.89
2016-03-31T05:47:02.177Z,1005.93
2016-03-31T05:48:02.179Z,1005.95
2016-03-31T05:49:02.199Z,1005.96
2016-03-31T05:50:02.201Z,1005.95
2016-03-31T05:51:02.203Z,1006.02
2016-03-31T05:52:02.207Z,1006
2016-03-31T05:53:02.209Z,1006.07
2016-03-31T05:54:02.212Z,1006.13
2016-03-31T05:55:02.230Z,1006.18
2016-03-31T05:56:02.232Z,1006.17
2016-03-31T05:57:02.235Z,1006.22
2016-03-31T05:58:02.253Z,1006.24
2016-03-31T05:59:02.256Z,1006.23
2016-03-31T06:00:02.274Z,1006.29
2016-03-31T06:01:02.262Z,1006.28
2016-03-31T06:02:02.264Z,1006.27
2016-03-31T06:03:02.283Z,1006.29
2016-03-31T06:04:02.270Z,1006.25
2016-03-31T06:05:02.288Z,1006.19
2016-03-31T06:06:02.291Z,1006.15
2016-03-31T06:07:02.294Z,1006.12
2016-03-31T06:08:02.296Z,1006.14
2016-03-31T06:09:02.314Z,1006.15
2016-03-31T06:10:02.317Z,1006.17
2016-03-31T06:11:02.320Z,1006.19
2016-03-31T06:12:02.322Z,1006.19
2016-03-31T06:13:02.325Z,1006.17
2016-03-31T06:14:02.328Z,1006.14
2016-03-31T06:15:02.346Z,1006.13
2016-03-31T06:16:02.349Z,1006.1
2016-03-31T06:17:02.352Z,1006.09
2016-03-31T06:18:02.354Z,1006.01
2016-03-31T06:19:02.357Z,1006.05
2016-03-31T06:20:02.359Z,1006.07
2016-03-31T06:21:02.377Z,1006.07
2016-03-31T06:22:02.380Z,1006.12
2016-03-31T06:23:02.383Z,1006.1
2016-03-31T06:24:02.385Z,1006.11
2016-03-31T06:25:02.388Z,1006.11
2016-03-31T06:26:02.407Z,1006.12
2016-03-31T06:27:02.410Z,1006.08
2016-03-31T06:28:02.412Z,1006.1
2016-03-31T06:29:02.431Z,1006.11
2016-03-31T06:30:02.418Z,1006.12
2016-03-31T06:31:02.436Z,1006.12
2016-03-31T06:32:02.439Z,1006.11
2016-03-31T06:33:02.441Z,1006.08
2016-03-31T06:34:02.445Z,1006.07
2016-03-31T06:35:02.447Z,1006.05
2016-03-31T06:36:02.464Z,1006.06
2016-03-31T06:37:02.468Z,1006.09
2016-03-31T06:38:02.470Z,1006.09
2016-03-31T06:39:02.473Z,1006.1
2016-03-31T06:40:02.476Z,1006.12
2016-03-31T06:41:02.494Z,1006.14
2016-03-31T06:42:02.497Z,1006.09
2016-03-31T06:43:02.499Z,1006.09
2016-03-31T06:44:02.502Z,1006.02
2016-03-31T06:45:02.521Z,1006.02
2016-03-31T06:46:02.538Z,1005.97
2016-03-31T06:47:02.527Z,1006.05
2016-03-31T06:48:02.529Z,1006.03
2016-03-31T06:49:02.531Z,1005.97
2016-03-31T06:50:02.535Z,1006.02
2016-03-31T06:51:02.552Z,1006
2016-03-31T06:52:02.554Z,1006
2016-03-31T06:53:02.558Z,1005.97
2016-03-31T06:54:02.576Z,1005.97
2016-03-31T06:55:02.579Z,1006
2016-03-31T06:56:02.566Z,1006.03
2016-03-31T06:57:02.584Z,1006
2016-03-31T06:58:02.587Z,1006.09
2016-03-31T06:59:02.589Z,1006.1
2016-03-31T07:00:02.607Z,1006.14
2016-03-31T07:01:02.595Z,1006.17
2016-03-31T07:02:02.612Z,1006.21
2016-03-31T07:03:02.616Z,1006.2
2016-03-31T07:04:02.618Z,1006.22
2016-03-31T07:05:02.620Z,1006.23
2016-03-31T07:06:02.640Z,1006.29
2016-03-31T07:07:02.642Z,1006.29
2016-03-31T07:08:02.650Z,1006.31
2016-03-31T07:09:02.652Z,1006.31
2016-03-31T07:10:02.655Z,1006.33
2016-03-31T07:11:02.658Z,1006.3
2016-03-31T07:12:02.660Z,1006.31
2016-03-31T07:13:02.679Z,1006.35
2016-03-31T07:14:02.682Z,1006.36
2016-03-31T07:15:02.684Z,1006.38
2016-03-31T07:16:02.688Z,1006.45
2016-03-31T07:17:02.690Z,1006.45
2016-03-31T07:18:02.692Z,1006.49
2016-03-31T07:19:02.711Z,1006.45
2016-03-31T07:20:02.713Z,1006.47
2016-03-31T07:21:02.715Z,1006.49
2016-03-31T07:22:02.734Z,1006.45
2016-03-31T07:23:02.722Z,1006.48
2016-03-31T07:24:02.740Z,1006.48
2016-03-31T07:25:02.742Z,1006.44
2016-03-31T07:26:02.745Z,1006.42
2016-03-31T07:27:02.763Z,1006.44
2016-03-31T07:28:02.765Z,1006.44
2016-03-31T07:29:02.768Z,1006.48
2016-03-31T07:30:02.771Z,1006.46
2016-03-31T07:31:02.773Z,1006.49
2016-03-31T07:32:02.776Z,1006.51
2016-03-31T07:33:02.779Z,1006.51
2016-03-31T07:34:02.798Z,1006.55
2016-03-31T07:35:02.800Z,1006.53
2016-03-31T07:36:02.803Z,1006.54
2016-03-31T07:37:02.806Z,1006.54
2016-03-31T07:38:02.824Z,1006.58
2016-03-31T07:39:02.827Z,1006.6
2016-03-31T07:40:02.830Z,1006.58
2016-03-31T07:41:02.832Z,1006.62
2016-03-31T07:42:02.835Z,1006.65
2016-03-31T07:43:02.838Z,1006.61
2016-03-31T07:44:02.856Z,1006.63
2016-03-31T07:45:02.858Z,1006.62
2016-03-31T07:46:02.861Z,1006.62
2016-03-31T07:47:02.863Z,1006.62
2016-03-31T07:48:02.883Z,1006.61
2016-03-31T07:49:02.885Z,1006.63
2016-03-31T07:50:02.888Z,1006.63
2016-03-31T07:51:02.891Z,1006.62
2016-03-31T07:52:02.893Z,1006.64
2016-03-31T07:53:02.912Z,1006.63
2016-03-31T07:54:02.914Z,1006.64
2016-03-31T07:55:02.917Z,1006.65
2016-03-31T07:56:02.920Z,1006.66
2016-03-31T07:57:02.922Z,1006.64
2016-03-31T07:58:02.940Z,1006.69
2016-03-31T07:59:02.943Z,1006.72
2016-03-31T08:00:02.946Z,1006.69
2016-03-31T08:01:02.964Z,1006.72
2016-03-31T08:02:02.967Z,1006.75
2016-03-31T08:03:02.984Z,1006.78
2016-03-31T08:04:02.972Z,1006.78
2016-03-31T08:05:02.975Z,1006.85
2016-03-31T08:06:02.993Z,1006.84
2016-03-31T08:07:02.996Z,1006.87
2016-03-31T08:08:02.998Z,1006.85
2016-03-31T08:09:03.001Z,1006.87
2016-03-31T08:10:03.004Z,1006.86
2016-03-31T08:11:03.007Z,1006.88
2016-03-31T08:12:03.025Z,1006.9
2016-03-31T08:13:03.028Z,1006.88
2016-03-31T08:14:03.030Z,1006.87
2016-03-31T08:15:03.033Z,1006.83
2016-03-31T08:16:03.035Z,1006.86
2016-03-31T08:17:03.039Z,1006.85
2016-03-31T08:18:03.041Z,1006.89
2016-03-31T08:19:03.044Z,1006.85
2016-03-31T08:20:03.046Z,1006.89
2016-03-31T08:21:03.033Z,1006.9
2016-03-31T08:22:03.036Z,1006.87
2016-03-31T08:23:03.038Z,1006.88
2016-03-31T08:24:03.041Z,1006.91
2016-03-31T08:25:03.043Z,1006.92
2016-03-31T08:26:03.046Z,1006.9
2016-03-31T08:27:03.049Z,1006.91
2016-03-31T08:28:03.036Z,1006.93
2016-03-31T08:29:03.040Z,1007.01
2016-03-31T08:30:03.042Z,1006.95
2016-03-31T08:31:03.029Z,1006.95
2016-03-31T08:32:03.031Z,1006.95
2016-03-31T08:33:03.034Z,1007.01
2016-03-31T08:34:03.022Z,1006.96
2016-03-31T08:35:03.025Z,1007.03
2016-03-31T08:36:03.027Z,1007.06
2016-03-31T08:37:03.030Z,1007.06
2016-03-31T08:38:03.033Z,1007.09
2016-03-31T08:39:03.019Z,1007.07
2016-03-31T08:40:03.039Z,1007.12
2016-03-31T08:41:03.025Z,1007.14
2016-03-31T08:42:03.028Z,1007.13
2016-03-31T08:43:03.031Z,1007.17
2016-03-31T08:44:03.033Z,1007.21
2016-03-31T08:45:03.036Z,1007.21
2016-03-31T08:46:03.039Z,1007.15
2016-03-31T08:47:03.025Z,1007.17
2016-03-31T08:48:03.028Z,1007.21
2016-03-31T08:49:03.031Z,1007.17
2016-03-31T08:50:03.018Z,1007.17
2016-03-31T08:51:03.035Z,1007.2
2016-03-31T08:52:03.023Z,1007.16
2016-03-31T08:53:03.010Z,1007.2
2016-03-31T08:54:03.013Z,1007.16
2016-03-31T08:55:03.015Z,1007.15
2016-03-31T08:56:03.002Z,1007.13
2016-03-31T08:57:03.005Z,1007.16
2016-03-31T08:58:03.008Z,1007.17
2016-03-31T08:59:02.995Z,1007.2
2016-03-31T09:00:02.998Z,1007.28
2016-03-31T09:01:03.001Z,1007.23
2016-03-31T09:02:02.988Z,1007.17
2016-03-31T09:03:02.990Z,1007.17
2016-03-31T09:04:02.992Z,1007.22
2016-03-31T09:05:02.981Z,1007.22
2016-03-31T09:06:02.983Z,1007.18
2016-03-31T09:07:02.969Z,1007.22
2016-03-31T09:08:02.972Z,1007.18
2016-03-31T09:09:02.975Z,1007.24
2016-03-31T09:10:02.978Z,1007.18
2016-03-31T09:11:02.964Z,1007.21
2016-03-31T09:12:02.967Z,1007.24
2016-03-31T09:13:02.955Z,1007.16
2016-03-31T09:14:02.957Z,1007.15
2016-03-31T09:15:02.960Z,1007.15
2016-03-31T09:16:02.944Z,1007.23
2016-03-31T09:17:02.947Z,1007.18
2016-03-31T09:18:02.966Z,1007.17
2016-03-31T09:19:02.953Z,1007.2
2016-03-31T09:20:02.939Z,1007.19
2016-03-31T09:21:02.942Z,1007.13
2016-03-31T09:22:02.945Z,1007.17
2016-03-31T09:23:02.932Z,1007.13
2016-03-31T09:24:02.935Z,1007.13
2016-03-31T09:25:02.937Z,1007.16
2016-03-31T09:26:02.925Z,1007.16
2016-03-31T09:27:02.943Z,1007.26
2016-03-31T09:28:02.930Z,1007.21
2016-03-31T09:29:02.933Z,1007.19
2016-03-31T09:30:02.920Z,1007.17
2016-03-31T09:31:02.923Z,1007.16
2016-03-31T09:32:02.909Z,1007.18
2016-03-31T09:33:02.912Z,1007.15
2016-03-31T09:34:02.915Z,1007.1
2016-03-31T09:35:02.902Z,1007.11
2016-03-31T09:36:02.904Z,1007.12
2016-03-31T09:37:02.892Z,1007.11
2016-03-31T09:38:02.895Z,1007.08
2016-03-31T09:39:02.897Z,1007.13
2016-03-31T09:40:02.884Z,1007.14
2016-03-31T09:41:02.887Z,1007.16
2016-03-31T09:42:02.890Z,1007.14
2016-03-31T09:43:02.876Z,1007.11
2016-03-31T09:44:02.879Z,1007.07
2016-03-31T09:45:02.867Z,1007.14
2016-03-31T09:46:02.870Z,1007.04
2016-03-31T09:47:02.872Z,1007.07
2016-03-31T09:48:02.874Z,1007.07
2016-03-31T09:49:02.861Z,1007.1
2016-03-31T09:50:02.863Z,1007.05
2016-03-31T09:51:02.866Z,1007.09
2016-03-31T09:52:02.854Z,1007.03
2016-03-31T09:53:02.857Z,1007.04
2016-03-31T09:54:02.860Z,1007.01
2016-03-31T09:55:02.863Z,1007.04
2016-03-31T09:56:02.865Z,1007.06
2016-03-31T09:57:02.868Z,1007.1
2016-03-31T09:58:02.871Z,1007.09
2016-03-31T09:59:02.873Z,1007.11
2016-03-31T10:00:02.891Z,1007.13
2016-03-31T10:01:02.878Z,1007.12
2016-03-31T10:02:02.881Z,1007.1
2016-03-31T10:03:02.915Z,1007.1
2016-03-31T10:04:02.902Z,1007.08
2016-03-31T10:05:02.905Z,1007.06
2016-03-31T10:06:02.907Z,1007.07
2016-03-31T10:07:02.909Z,1007.04
2016-03-31T10:08:02.912Z,1007.07
2016-03-31T10:09:02.931Z,1007.06
2016-03-31T10:10:02.934Z,1007.05
2016-03-31T10:11:02.937Z,1007.1
2016-03-31T10:12:02.939Z,1007.03
2016-03-31T10:13:02.941Z,1007.03
2016-03-31T10:14:02.959Z,1007
2016-03-31T10:15:02.962Z,1007
2016-03-31T10:16:02.965Z,1007
2016-03-31T10:17:02.968Z,1006.97
2016-03-31T10:18:03.017Z,1006.95
2016-03-31T10:19:02.989Z,1006.97
2016-03-31T10:20:02.992Z,1006.97
2016-03-31T10:21:02.994Z,1006.99
2016-03-31T10:22:02.998Z,1006.93
2016-03-31T10:23:03.000Z,1006.94
2016-03-31T10:24:03.019Z,1006.99
2016-03-31T10:25:03.021Z,1006.98
2016-03-31T10:26:03.024Z,1006.94
2016-03-31T10:27:03.027Z,1006.95
2016-03-31T10:28:03.044Z,1006.91
2016-03-31T10:29:03.047Z,1006.89
2016-03-31T10:30:03.049Z,1006.92
2016-03-31T10:31:03.052Z,1006.92
2016-03-31T10:32:03.071Z,1006.87
2016-03-31T10:33:03.090Z,1006.91
2016-03-31T10:34:03.076Z,1006.93
2016-03-31T10:35:03.095Z,1006.86
2016-03-31T10:36:03.097Z,1006.94
2016-03-31T10:37:03.100Z,1006.88
2016-03-31T10:38:03.118Z,1006.91
2016-03-31T10:39:03.121Z,1006.9
2016-03-31T10:40:03.124Z,1006.88
2016-03-31T10:41:03.126Z,1006.82
2016-03-31T10:42:03.129Z,1006.83
2016-03-31T10:43:03.147Z,1006.78
2016-03-31T10:44:03.151Z,1006.74
2016-03-31T10:45:03.153Z,1006.8
2016-03-31T10:46:03.171Z,1006.86
2016-03-31T10:47:03.173Z,1006.86
2016-03-31T10:48:03.192Z,1006.95
2016-03-31T10:49:03.179Z,1006.9
2016-03-31T10:50:03.181Z,1006.91
2016-03-31T10:51:03.200Z,1006.91
2016-03-31T10:52:03.203Z,1006.89
2016-03-31T10:53:03.206Z,1006.9
2016-03-31T10:54:03.208Z,1006.89
2016-03-31T10:55:03.227Z,1006.95
2016-03-31T10:56:03.229Z,1006.94
2016-03-31T10:57:03.247Z,1006.92
2016-03-31T10:58:03.250Z,1006.96
2016-03-31T10:59:03.253Z,1006.97
2016-03-31T11:00:03.272Z,1006.92
2016-03-31T11:01:03.258Z,1006.99
2016-03-31T11:02:03.277Z,1007.01
2016-03-31T11:03:03.280Z,1007.02
2016-03-31T11:04:03.282Z,1006.97
2016-03-31T11:05:03.285Z,1006.96
2016-03-31T11:06:03.304Z,1006.97
2016-03-31T11:07:03.306Z,1006.97
2016-03-31T11:08:03.309Z,1006.93
2016-03-31T11:09:03.311Z,1006.89
2016-03-31T11:10:03.329Z,1006.92
2016-03-31T11:11:03.332Z,1006.89
2016-03-31T11:12:03.335Z,1006.89
2016-03-31T11:13:03.353Z,1006.9
2016-03-31T11:14:03.356Z,1006.9
2016-03-31T11:15:03.359Z,1006.94
2016-03-31T11:16:03.362Z,1006.92
2016-03-31T11:17:03.379Z,1006.92
2016-03-31T11:18:03.382Z,1006.99
2016-03-31T11:19:03.385Z,1006.93
2016-03-31T11:20:03.387Z,1006.95
2016-03-31T11:21:03.406Z,1006.91
2016-03-31T11:22:03.409Z,1006.88
2016-03-31T11:23:03.411Z,1006.86
2016-03-31T11:24:03.414Z,1006.8
2016-03-31T11:25:03.433Z,1006.83
2016-03-31T11:26:03.436Z,1006.81
2016-03-31T11:27:03.438Z,1006.84
2016-03-31T11:28:03.456Z,1006.8
2016-03-31T11:29:03.458Z,1006.82
2016-03-31T11:30:03.461Z,1006.84
2016-03-31T11:31:03.463Z,1006.87
2016-03-31T11:32:03.482Z,1006.9
2016-03-31T11:33:03.485Z,1006.92
2016-03-31T11:34:03.487Z,1006.92
2016-03-31T11:35:03.507Z,1006.94
2016-03-31T11:36:03.509Z,1006.92
2016-03-31T11:37:03.511Z,1006.9
2016-03-31T11:38:03.514Z,1006.93
2016-03-31T11:39:03.532Z,1006.87
2016-03-31T11:40:03.535Z,1006.85
2016-03-31T11:41:03.538Z,1006.74
2016-03-31T11:42:03.540Z,1006.79
2016-03-31T11:43:03.559Z,1006.76
2016-03-31T11:44:03.561Z,1006.74
2016-03-31T11:45:03.564Z,1006.79
2016-03-31T11:46:04.364Z,1006.8
2016-03-31T11:47:03.570Z,1006.72
2016-03-31T11:48:03.587Z,1006.69
2016-03-31T11:49:03.590Z,1006.67
2016-03-31T11:50:03.577Z,1006.65
2016-03-31T11:51:03.580Z,1006.9
2016-03-31T11:52:03.583Z,1006.74
2016-03-31T11:53:03.586Z,1006.76
2016-03-31T11:54:03.589Z,1006.71
2016-03-31T11:55:03.591Z,1006.74
2016-03-31T11:56:03.578Z,1006.75
2016-03-31T11:57:03.596Z,1006.8
2016-03-31T11:58:03.583Z,1006.83
2016-03-31T11:59:03.586Z,1006.94
2016-03-31T12:00:03.588Z,1006.89
2016-03-31T12:01:03.592Z,1006.88
2016-03-31T12:02:03.594Z,1006.87
2016-03-31T12:03:03.582Z,1006.87
2016-03-31T12:04:03.585Z,1006.9
2016-03-31T12:05:03.588Z,1006.9
2016-03-31T12:06:03.590Z,1006.98
2016-03-31T12:07:03.593Z,1007.02
2016-03-31T12:08:03.595Z,1007.01
2016-03-31T12:09:03.598Z,1007.02
2016-03-31T12:10:03.600Z,1007.04
2016-03-31T12:11:03.603Z,1007.13
2016-03-31T12:12:03.606Z,1007.13